Time;durP1;ratioP1;P1;durP2;ratioP2;P2;SDS_P1;SDS_P2;PMS_P1;PMS_P2;Temp;Humidity;BMP_temperature;BMP_pressure;BME280_temperature;BME280_humidity;BME280_pressure;Samples;Min_cycle;Max_cycle;Signal;HPM_P1;HPM_P2
2022/05/27 04:00:34;;;;;;;3.47;2.90;;;15.50;99.90;;;;;;5917038;23;20478;-65
2022/05/27 04:03:00;;;;;;;2.87;2.73;;;15.50;99.90;;;;;;4994446;28;20520;-65
2022/05/27 04:05:27;;;;;;;3.10;2.90;;;15.50;99.90;;;;;;4994421;28;20461;-65
2022/05/27 04:07:54;;;;;;;2.67;2.40;;;15.50;99.90;;;;;;4994412;28;20458;-65
2022/05/27 04:10:21;;;;;;;3.40;3.10;;;15.50;99.90;;;;;;4995900;28;20457;-64
2022/05/27 04:12:47;;;;;;;3.83;3.60;;;15.40;99.90;;;;;;4998431;28;20560;-63
2022/05/27 04:15:14;;;;;;;5.93;3.53;;;15.40;99.90;;;;;;4998288;28;20453;-64
2022/05/27 04:17:42;;;;;;;7.23;3.43;;;15.40;99.90;;;;;;4997957;28;20465;-63
2022/05/27 04:20:11;;;;;;;4.43;3.10;;;15.40;99.90;;;;;;5003332;28;20457;-63
2022/05/27 04:22:38;;;;;;;3.10;2.60;;;15.40;99.90;;;;;;5003249;28;21003;-63
2022/05/27 04:25:06;;;;;;;3.60;3.30;;;15.40;99.90;;;;;;5003340;28;20453;-63
2022/05/27 04:27:33;;;;;;;2.80;2.70;;;15.40;99.90;;;;;;5002311;28;20453;-63
2022/05/27 04:30:00;;;;;;;3.57;3.27;;;15.40;99.90;;;;;;4998776;28;20465;-64
2022/05/27 04:32:27;;;;;;;4.77;3.30;;;15.40;99.90;;;;;;4997925;28;20477;-63
2022/05/27 04:34:56;;;;;;;3.33;2.97;;;15.40;99.90;;;;;;4997914;28;20461;-63
2022/05/27 04:37:24;;;;;;;4.73;3.03;;;15.40;99.90;;;;;;4997914;28;20548;-63
2022/05/27 04:39:51;;;;;;;3.10;2.90;;;15.50;99.90;;;;;;4997913;28;20453;-63
2022/05/27 04:42:19;;;;;;;3.50;3.20;;;15.50;99.90;;;;;;4997746;28;20482;-63
2022/05/27 04:44:46;;;;;;;3.07;2.87;;;15.50;99.90;;;;;;4997922;28;20454;-63
2022/05/27 04:47:12;;;;;;;3.30;2.90;;;15.50;99.90;;;;;;4997788;28;20460;-64
2022/05/27 04:49:51;;;;;;;3.50;3.20;;;15.50;99.90;;;;;;4997782;28;20504;-63
2022/05/27 04:52:20;;;;;;;3.27;2.97;;;15.60;99.90;;;;;;4997638;28;20469;-64
2022/05/27 04:54:47;;;;;;;2.33;2.27;;;15.60;99.90;;;;;;4997509;28;20853;-64
2022/05/27 04:57:17;;;;;;;3.27;3.00;;;15.70;99.90;;;;;;4997285;28;20458;-64
2022/05/27 04:59:46;;;;;;;3.83;2.50;;;15.80;99.90;;;;;;4997168;28;20512;-64
2022/05/27 05:02:13;;;;;;;10.93;3.43;;;15.90;99.90;;;;;;4996913;28;20484;-64
2022/05/27 05:04:40;;;;;;;2.90;2.70;;;16.00;99.90;;;;;;4997440;28;20492;-64
2022/05/27 05:07:09;;;;;;;4.03;3.63;;;16.00;99.90;;;;;;4997376;28;20450;-64
2022/05/27 05:09:38;;;;;;;3.27;3.07;;;16.10;99.90;;;;;;4998073;28;20462;-64
2022/05/27 05:12:05;;;;;;;6.30;3.30;;;16.20;99.90;;;;;;4997196;28;20477;-64
2022/05/27 05:14:32;;;;;;;3.93;3.10;;;16.30;99.90;;;;;;4997304;28;20457;-64
2022/05/27 05:16:59;;;;;;;3.90;3.13;;;16.40;99.90;;;;;;4997079;28;20458;-64
2022/05/27 05:19:26;;;;;;;2.97;2.80;;;16.40;99.90;;;;;;4997108;28;20495;-64
2022/05/27 05:21:53;;;;;;;3.07;2.70;;;16.50;99.90;;;;;;4996587;28;20485;-64
2022/05/27 05:24:20;;;;;;;3.37;3.17;;;16.60;99.90;;;;;;4997022;28;20507;-64
2022/05/27 05:26:48;;;;;;;4.00;3.70;;;16.70;99.90;;;;;;4996916;28;20465;-64
2022/05/27 05:29:15;;;;;;;3.90;3.53;;;16.70;99.90;;;;;;4996986;28;20454;-64
2022/05/27 05:31:42;;;;;;;3.37;3.17;;;16.80;99.90;;;;;;4996793;28;20477;-64
2022/05/27 05:34:08;;;;;;;3.40;3.10;;;16.80;99.90;;;;;;4996916;28;20465;-64
2022/05/27 05:36:35;;;;;;;4.17;3.77;;;16.80;99.90;;;;;;4996467;28;20454;-64
2022/05/27 05:39:03;;;;;;;3.67;3.30;;;16.90;99.90;;;;;;4996502;28;20967;-64
2022/05/27 05:41:32;;;;;;;5.03;3.90;;;16.90;99.90;;;;;;4996481;28;20999;-63
2022/05/27 05:44:00;;;;;;;4.27;3.97;;;16.80;99.90;;;;;;4996853;28;20489;-64
2022/05/27 05:46:28;;;;;;;4.03;3.73;;;16.80;99.90;;;;;;4996405;28;20534;-64
2022/05/27 05:48:55;;;;;;;5.00;4.50;;;16.80;99.90;;;;;;4996377;28;20941;-64
2022/05/27 05:51:22;;;;;;;4.70;4.30;;;16.70;99.90;;;;;;4996284;28;20478;-64
2022/05/27 05:53:48;;;;;;;5.30;4.47;;;16.70;99.90;;;;;;4996491;28;20458;-65
2022/05/27 05:56:15;;;;;;;9.13;4.80;;;16.70;99.90;;;;;;4996412;28;20465;-64
2022/05/27 05:58:42;;;;;;;4.77;4.30;;;16.70;99.90;;;;;;4996456;28;20464;-64
2022/05/27 06:01:10;;;;;;;7.27;4.17;;;16.70;99.90;;;;;;4996140;28;20481;-64
2022/05/27 06:03:37;;;;;;;5.90;5.40;;;16.70;99.90;;;;;;4996242;28;20477;-64
2022/05/27 06:06:04;;;;;;;4.63;4.20;;;16.70;99.90;;;;;;4996289;28;20453;-64
2022/05/27 06:08:31;;;;;;;5.87;4.20;;;16.70;99.90;;;;;;4996264;28;20453;-64
2022/05/27 06:10:58;;;;;;;4.50;4.10;;;16.80;99.90;;;;;;4996263;28;20905;-64
2022/05/27 06:13:26;;;;;;;8.00;4.90;;;16.80;99.90;;;;;;4996136;28;20524;-64
2022/05/27 06:15:53;;;;;;;4.87;4.43;;;16.90;99.90;;;;;;4996234;28;20493;-65
2022/05/27 06:18:21;;;;;;;5.10;4.37;;;16.90;99.90;;;;;;4995803;28;21035;-64
2022/05/27 06:20:48;;;;;;;5.90;4.80;;;16.90;99.90;;;;;;4996076;28;20478;-64
2022/05/27 06:23:14;;;;;;;6.73;4.40;;;16.90;99.90;;;;;;5004620;28;20474;-65
2022/05/27 06:25:41;;;;;;;5.07;4.67;;;16.90;99.90;;;;;;5006713;28;20500;-64
2022/05/27 06:36:22;;;;;;;5.00;4.40;;;16.90;99.90;;;;;;4995724;28;20421;-64
2022/05/27 06:38:49;;;;;;;6.07;4.17;;;16.90;99.90;;;;;;4995743;28;20537;-64
2022/05/27 06:41:17;;;;;;;5.13;4.57;;;16.90;99.90;;;;;;4995386;28;20473;-64
2022/05/27 06:43:45;;;;;;;6.87;4.30;;;16.90;99.90;;;;;;4995100;28;20485;-64
2022/05/27 06:46:13;;;;;;;4.33;3.93;;;16.80;99.90;;;;;;4995946;28;20454;-64
2022/05/27 06:48:41;;;;;;;4.67;4.20;;;16.80;99.90;;;;;;4995376;28;20465;-64
2022/05/27 06:51:08;;;;;;;3.77;3.40;;;16.90;99.90;;;;;;4995260;28;20477;-64
2022/05/27 06:53:35;;;;;;;3.73;3.43;;;16.80;99.90;;;;;;4995260;28;20449;-64
2022/05/27 06:56:02;;;;;;;4.10;3.80;;;16.80;99.90;;;;;;4995276;28;20491;-64
2022/05/27 06:58:29;;;;;;;4.23;3.90;;;16.80;99.90;;;;;;4995241;28;20481;-64
2022/05/27 07:00:55;;;;;;;3.10;2.90;;;16.70;99.90;;;;;;4994864;28;21031;-64
2022/05/27 07:03:23;;;;;;;6.67;3.50;;;16.70;99.90;;;;;;4995048;28;20482;-64
2022/05/27 07:05:51;;;;;;;4.10;3.40;;;16.70;99.90;;;;;;4995181;28;20454;-64
2022/05/27 07:08:17;;;;;;;3.87;3.30;;;16.70;99.90;;;;;;4994751;28;20945;-64
2022/05/27 07:10:44;;;;;;;4.27;3.97;;;16.80;99.90;;;;;;4994742;28;20489;-64
2022/05/27 07:13:12;;;;;;;6.30;3.70;;;16.80;99.90;;;;;;4994901;28;20492;-64
2022/05/27 07:15:39;;;;;;;4.60;3.13;;;16.80;99.90;;;;;;4995059;28;20458;-64
2022/05/27 07:18:08;;;;;;;3.37;3.17;;;16.90;99.90;;;;;;4995104;28;20453;-64
2022/05/27 07:20:36;;;;;;;6.30;3.47;;;16.90;99.90;;;;;;4994800;28;20532;-64
2022/05/27 07:23:04;;;;;;;4.63;2.93;;;16.90;99.90;;;;;;4994811;28;20480;-64
2022/05/27 07:25:35;;;;;;;5.40;2.90;;;16.90;99.90;;;;;;4994909;28;20458;-64
2022/05/27 07:28:01;;;;;;;3.33;3.07;;;16.90;99.90;;;;;;4994578;28;20914;-64
2022/05/27 07:30:28;;;;;;;3.83;3.53;;;16.90;99.90;;;;;;4994767;28;20454;-64
2022/05/27 07:32:55;;;;;;;2.97;2.77;;;16.90;99.90;;;;;;4994762;28;20866;-63
2022/05/27 07:35:22;;;;;;;3.97;3.03;;;16.90;99.90;;;;;;4994616;28;20860;-64
2022/05/27 07:37:49;;;;;;;3.53;3.30;;;16.90;99.90;;;;;;4995389;28;20453;-64
2022/05/27 07:40:17;;;;;;;5.87;2.90;;;17.00;99.90;;;;;;4995397;28;20461;-64
2022/05/27 07:42:44;;;;;;;4.10;3.23;;;17.00;99.90;;;;;;4994572;28;20477;-64
2022/05/27 07:45:13;;;;;;;3.90;3.47;;;17.10;99.90;;;;;;4994461;28;20462;-64
2022/05/27 07:47:41;;;;;;;3.60;3.30;;;17.10;99.90;;;;;;4994614;28;20466;-64
2022/05/27 07:50:11;;;;;;;3.67;3.27;;;17.10;99.90;;;;;;4995436;28;20454;-64
2022/05/27 07:52:38;;;;;;;7.10;3.80;;;17.10;99.90;;;;;;4994789;28;20438;-64
2022/05/27 07:55:06;;;;;;;4.67;3.77;;;17.10;99.90;;;;;;4994773;28;20828;-64
2022/05/27 07:57:34;;;;;;;6.30;3.47;;;17.10;99.90;;;;;;4994641;28;20854;-64
2022/05/27 08:00:04;;;;;;;4.13;3.20;;;17.20;99.90;;;;;;4994684;28;20462;-63
2022/05/27 08:02:31;;;;;;;4.43;3.67;;;17.20;99.90;;;;;;4994341;28;20520;-64
2022/05/27 08:04:58;;;;;;;3.67;3.20;;;17.30;99.90;;;;;;4994591;28;20509;-64
2022/05/27 08:07:26;;;;;;;3.87;3.33;;;17.30;99.90;;;;;;4994301;28;20466;-64
2022/05/27 08:09:52;;;;;;;4.93;3.43;;;17.40;99.90;;;;;;4994568;28;20808;-64
2022/05/27 08:12:19;;;;;;;9.80;4.33;;;17.40;99.90;;;;;;4994398;28;20474;-64
2022/05/27 08:14:48;;;;;;;3.80;3.47;;;17.30;99.90;;;;;;4994678;28;20842;-64
2022/05/27 08:17:15;;;;;;;4.30;4.00;;;17.30;99.90;;;;;;4994362;28;20504;-64
2022/05/27 08:19:41;;;;;;;3.67;3.37;;;17.30;99.90;;;;;;4994006;28;20937;-64
2022/05/27 08:22:08;;;;;;;4.57;3.50;;;17.30;99.90;;;;;;4994315;28;20478;-64
2022/05/27 08:24:35;;;;;;;4.40;3.83;;;17.30;99.90;;;;;;4994555;28;20485;-64
2022/05/27 08:27:02;;;;;;;4.40;4.00;;;17.40;99.90;;;;;;4994372;28;20956;-64
2022/05/27 08:29:29;;;;;;;6.87;3.70;;;17.40;99.90;;;;;;4994194;28;20457;-64
2022/05/27 08:31:57;;;;;;;6.63;3.97;;;17.40;99.90;;;;;;4993784;28;20516;-64
2022/05/27 08:39:52;;;;;;;4.13;3.53;;;17.60;99.90;;;;;;4994523;28;20796;-64
2022/05/27 08:42:30;;;;;;;4.10;3.77;;;17.60;99.90;;;;;;4993906;28;20516;-64
2022/05/27 08:45:03;;;;;;;4.10;3.80;;;17.70;99.90;;;;;;4994495;28;20465;-64
2022/05/27 08:47:35;;;;;;;4.20;3.90;;;17.90;99.90;;;;;;4994268;28;20934;-64
2022/05/27 08:50:10;;;;;;;4.63;4.30;;;18.10;99.90;;;;;;4994387;28;20444;-65
2022/05/27 08:52:42;;;;;;;6.07;4.10;;;18.10;99.90;;;;;;4994170;28;20456;-65
2022/05/27 09:01:07;;;;;;;4.37;4.07;;;18.00;99.90;;;;;;4997310;28;20523;-64
2022/05/27 09:03:41;;;;;;;6.87;4.50;;;17.90;99.90;;;;;;4997762;28;20477;-64
2022/05/27 09:06:10;;;;;;;4.03;3.80;;;18.00;99.90;;;;;;4997740;28;20446;-65
2022/05/27 09:08:37;;;;;;;6.60;3.63;;;18.10;99.90;;;;;;4997369;28;20945;-64
2022/05/27 09:11:16;;;;;;;3.67;3.13;;;18.40;99.90;;;;;;4997227;28;20469;-64
2022/05/27 09:13:52;;;;;;;3.37;3.17;;;18.70;99.90;;;;;;4997479;28;20438;-63
2022/05/27 09:16:29;;;;;;;4.83;3.93;;;19.00;99.90;;;;;;4997270;28;20465;-63
2022/05/27 09:19:05;;;;;;;3.20;3.00;;;19.30;99.90;;;;;;4998425;28;20806;-64
2022/05/27 09:21:40;;;;;;;5.30;3.50;;;19.70;99.90;;;;;;4997398;28;20492;-64
2022/05/27 09:24:19;;;;;;;3.30;2.80;;;20.10;99.90;;;;;;4997131;28;20492;-64
2022/05/27 09:26:54;;;;;;;3.10;2.80;;;20.30;99.90;;;;;;4997264;28;20449;-64
2022/05/27 09:29:34;;;;;;;3.30;2.97;;;20.50;99.90;;;;;;4997400;28;20504;-64
2022/05/27 09:32:06;;;;;;;3.03;2.80;;;20.60;99.90;;;;;;4997088;28;20477;-64
2022/05/27 09:34:38;;;;;;;3.40;2.90;;;20.50;99.90;;;;;;4997089;28;20446;-63
2022/05/27 09:37:08;;;;;;;3.13;2.93;;;20.30;99.90;;;;;;4996638;28;20904;-64
2022/05/27 09:39:36;;;;;;;7.53;2.93;;;20.20;99.90;;;;;;4997154;28;20438;-63
2022/05/27 09:42:24;;;;;;;3.23;3.00;;;20.00;99.90;;;;;;4996869;28;20492;-64
2022/05/27 09:44:54;;;;;;;2.83;2.73;;;19.90;99.90;;;;;;4996823;28;20549;-64
2022/05/27 09:47:22;;;;;;;3.27;3.07;;;19.90;99.90;;;;;;4996873;28;20453;-64
2022/05/27 09:49:56;;;;;;;3.10;3.00;;;19.80;99.90;;;;;;4997011;28;20512;-64
2022/05/27 09:52:24;;;;;;;3.37;2.73;;;19.70;99.90;;;;;;4996691;28;20485;-64
2022/05/27 09:54:54;;;;;;;4.00;3.63;;;19.70;99.90;;;;;;4996903;28;20478;-64
2022/05/27 09:57:25;;;;;;;3.77;3.07;;;19.60;99.90;;;;;;4996790;28;20828;-64
2022/05/27 09:59:56;;;;;;;3.13;3.00;;;19.70;99.90;;;;;;4996619;28;20560;-64
2022/05/27 10:02:27;;;;;;;4.47;2.90;;;19.60;99.90;;;;;;4996406;28;20485;-64
2022/05/27 10:04:58;;;;;;;4.27;2.93;;;19.70;99.90;;;;;;4996412;28;20969;-63
2022/05/27 10:07:35;;;;;;;2.60;2.40;;;19.80;99.90;;;;;;4995384;28;20442;-64
2022/05/27 10:10:26;;;;;;;3.50;3.20;;;19.90;99.90;;;;;;4996549;28;20516;-64
2022/05/27 10:12:53;;;;;;;3.27;2.97;;;20.10;99.90;;;;;;4996203;28;20454;-64
2022/05/27 10:15:25;;;;;;;4.60;3.17;;;20.20;99.90;;;;;;4996102;28;20454;-64
2022/05/27 10:17:52;;;;;;;3.27;2.93;;;20.30;99.90;;;;;;4996331;28;20461;-64
2022/05/27 10:20:29;;;;;;;2.83;2.63;;;20.50;99.90;;;;;;4996582;28;20457;-63
2022/05/27 10:23:04;;;;;;;3.27;3.03;;;20.70;99.90;;;;;;4996112;28;20449;-64
2022/05/27 10:25:36;;;;;;;5.60;2.70;;;20.90;99.90;;;;;;4996004;28;20458;-64
2022/05/27 10:28:05;;;;;;;4.43;3.30;;;20.90;99.90;;;;;;4995940;28;20512;-64
2022/05/27 10:30:34;;;;;;;3.00;2.30;;;21.10;99.90;;;;;;4995813;28;20478;-64
2022/05/27 10:33:16;;;;;;;3.67;3.37;;;21.40;99.90;;;;;;4995878;28;20457;-64
2022/05/27 10:35:45;;;;;;;4.20;2.60;;;21.70;99.90;;;;;;4995830;28;20442;-65
2022/05/27 10:38:26;;;;;;;3.73;2.80;;;21.90;99.90;;;;;;4995718;28;20540;-65
2022/05/27 10:41:01;;;;;;;3.77;2.50;;;22.00;99.90;;;;;;4995418;28;20981;-64
2022/05/27 10:43:39;;;;;;;3.13;2.47;;;21.90;99.90;;;;;;4995653;28;20472;-64
2022/05/27 10:46:09;;;;;;;2.87;2.67;;;21.80;99.90;;;;;;4995516;28;20500;-64
2022/05/27 10:49:03;;;;;;;2.77;2.57;;;21.60;99.90;;;;;;4995493;28;20457;-64
2022/05/27 10:51:41;;;;;;;3.03;2.83;;;21.50;99.90;;;;;;4982475;28;20560;-64
2022/05/27 10:54:29;;;;;;;3.20;2.90;;;21.30;99.90;;;;;;4996304;28;20434;-65
2022/05/27 11:03:04;;;;;;;2.97;2.67;;;21.10;99.90;;;;;;4995050;28;20468;-64
2022/05/27 11:05:43;;;;;;;2.70;2.60;;;21.10;99.90;;;;;;4995405;28;20470;-64
2022/05/27 11:08:25;;;;;;;28.03;10.00;;;21.20;99.90;;;;;;4995134;28;20450;-64
2022/05/27 11:11:02;;;;;;;3.40;3.10;;;21.30;99.90;;;;;;4995126;28;20481;-64
2022/05/27 11:16:40;;;;;;;2.60;2.40;;;21.40;99.90;;;;;;4995252;28;20429;-64
2022/05/27 11:19:34;;;;;;;4.07;2.50;;;21.50;99.90;;;;;;4994825;28;20438;-64
2022/05/27 11:22:16;;;;;;;2.67;2.20;;;21.50;99.90;;;;;;4992373;28;20893;-65
2022/05/27 11:25:09;;;;;;;2.90;2.17;;;21.70;99.90;;;;;;4994443;28;20947;-65
2022/05/27 11:27:49;;;;;;;1.93;1.80;;;21.90;99.90;;;;;;4986171;28;20453;-63
2022/05/27 11:30:31;;;;;;;6.23;1.90;;;21.90;99.90;;;;;;4994982;28;20438;-63
2022/05/27 11:33:09;;;;;;;2.10;2.00;;;21.80;99.90;;;;;;4994798;28;20441;-64
2022/05/27 11:36:10;;;;;;;2.00;1.87;;;21.90;99.90;;;;;;4994734;28;20437;-64
2022/05/27 11:39:00;;;;;;;2.33;2.13;;;22.00;99.90;;;;;;4994375;28;20937;-64
2022/05/27 11:41:33;;;;;;;2.37;1.60;;;22.20;99.90;;;;;;4994424;28;20985;-64
2022/05/27 11:44:12;;;;;;;2.00;1.90;;;22.20;99.90;;;;;;4994626;28;20461;-64
2022/05/27 11:46:53;;;;;;;1.70;1.60;;;22.30;99.90;;;;;;4994843;28;20450;-65
2022/05/27 11:49:36;;;;;;;2.83;1.57;;;22.40;99.90;;;;;;4994727;28;20438;-64
2022/05/27 11:52:15;;;;;;;1.90;1.83;;;22.40;99.90;;;;;;4995126;28;20564;-64
2022/05/27 11:55:03;;;;;;;1.83;1.73;;;22.60;99.90;;;;;;4994976;28;20434;-64
2022/05/27 11:57:46;;;;;;;1.73;1.63;;;22.90;99.90;;;;;;4995309;28;20515;-64
2022/05/27 12:00:17;;;;;;;3.37;2.00;;;23.40;99.90;;;;;;4994080;28;20960;-64
2022/05/27 12:02:51;;;;;;;2.10;2.00;;;23.70;98.30;;;;;;4994423;28;20480;-64
2022/05/27 12:05:21;;;;;;;3.27;1.83;;;24.00;98.60;;;;;;4994418;28;20493;-64
2022/05/27 12:07:55;;;;;;;2.20;1.57;;;24.20;96.80;;;;;;4994412;28;20458;-65
2022/05/27 12:10:26;;;;;;;1.53;1.40;;;24.20;97.30;;;;;;4994806;28;20436;-66
2022/05/27 12:13:00;;;;;;;1.53;1.43;;;24.20;96.70;;;;;;4994645;28;20446;-65
2022/05/27 12:15:33;;;;;;;2.00;1.40;;;24.30;96.90;;;;;;4994654;28;20509;-64
2022/05/27 12:18:02;;;;;;;3.33;1.60;;;24.50;96.60;;;;;;4994208;28;20442;-65
2022/05/27 12:20:32;;;;;;;1.80;1.80;;;24.60;95.60;;;;;;4994281;28;20465;-64
2022/05/27 12:23:01;;;;;;;1.77;1.67;;;24.60;95.30;;;;;;4995108;28;20454;-64
2022/05/27 12:25:30;;;;;;;2.37;1.43;;;24.70;96.90;;;;;;4994785;28;20992;-65
2022/05/27 12:28:02;;;;;;;1.57;1.47;;;24.80;96.00;;;;;;4994580;28;20534;-64
2022/05/27 12:30:32;;;;;;;2.10;1.80;;;25.00;95.00;;;;;;4996994;28;20544;-64
2022/05/27 12:33:00;;;;;;;1.40;1.30;;;24.80;94.80;;;;;;5009962;28;20905;-64
2022/05/27 12:35:44;;;;;;;2.07;1.23;;;24.90;95.20;;;;;;5002130;28;20457;-64
2022/05/27 12:38:15;;;;;;;1.37;1.37;;;24.90;94.30;;;;;;4997606;28;20848;-64
2022/05/27 12:40:46;;;;;;;1.50;1.50;;;25.00;96.20;;;;;;4998075;28;20484;-65
2022/05/27 12:43:23;;;;;;;2.23;1.57;;;24.90;95.10;;;;;;4997584;28;20445;-65
2022/05/27 12:45:53;;;;;;;1.53;1.43;;;25.00;92.50;;;;;;4997438;28;20813;-65
2022/05/27 12:48:38;;;;;;;1.67;1.60;;;24.70;92.60;;;;;;4997253;28;20507;-65
2022/05/27 12:51:07;;;;;;;1.60;1.50;;;24.70;92.80;;;;;;4997961;28;20891;-65
2022/05/27 12:53:51;;;;;;;1.57;1.37;;;24.50;92.90;;;;;;4997618;28;20456;-65
2022/05/27 13:02:59;;;;;;;1.60;1.50;;;24.20;94.90;;;;;;4997493;28;20465;-64
2022/05/27 13:06:07;;;;;;;3.10;1.70;;;24.40;94.10;;;;;;4997458;28;20528;-64
2022/05/27 13:08:36;;;;;;;1.57;1.47;;;24.50;93.00;;;;;;4997268;28;20806;-65
2022/05/27 13:11:03;;;;;;;2.00;1.57;;;24.50;93.50;;;;;;4997438;28;20473;-64
2022/05/27 13:13:33;;;;;;;1.80;1.70;;;24.40;93.80;;;;;;4997066;28;20949;-64
2022/05/27 13:16:24;;;;;;;4.07;2.43;;;24.40;94.40;;;;;;4997253;28;20456;-64
2022/05/27 13:18:59;;;;;;;2.13;1.70;;;24.50;93.10;;;;;;4997215;28;20461;-65
2022/05/27 13:21:41;;;;;;;1.90;1.80;;;24.40;92.70;;;;;;4997295;28;20480;-64
2022/05/27 13:24:25;;;;;;;1.60;1.50;;;24.10;93.10;;;;;;4998560;28;20500;-64
2022/05/27 13:26:59;;;;;;;2.10;2.00;;;23.90;93.60;;;;;;4996887;28;20438;-64
2022/05/27 13:29:29;;;;;;;2.00;1.87;;;23.60;93.60;;;;;;4997065;28;20846;-65
2022/05/27 13:32:02;;;;;;;1.87;1.70;;;23.30;94.10;;;;;;4997774;28;20482;-65
2022/05/27 13:34:37;;;;;;;2.10;1.87;;;23.30;94.90;;;;;;4997008;28;20476;-64
2022/05/27 13:37:07;;;;;;;1.70;1.60;;;23.30;94.40;;;;;;4997055;28;20442;-65
2022/05/27 13:39:40;;;;;;;1.70;1.60;;;23.20;94.20;;;;;;4997032;28;20449;-64
2022/05/27 13:42:11;;;;;;;2.27;1.90;;;23.30;96.10;;;;;;4996744;28;20504;-64
2022/05/27 13:44:41;;;;;;;2.47;2.30;;;23.60;96.10;;;;;;4996931;28;20462;-64
2022/05/27 13:47:15;;;;;;;1.80;1.70;;;23.80;96.00;;;;;;4997674;28;20442;-64
2022/05/27 13:49:43;;;;;;;1.90;1.80;;;24.00;95.50;;;;;;4996750;28;20446;-64
2022/05/27 13:52:18;;;;;;;1.97;1.87;;;24.00;95.50;;;;;;4996731;28;20480;-64
2022/05/27 13:54:45;;;;;;;1.83;1.73;;;23.80;94.70;;;;;;4997053;28;20456;-64
2022/05/27 13:57:22;;;;;;;2.40;2.20;;;23.80;95.00;;;;;;4996764;28;20457;-64
2022/05/27 13:59:53;;;;;;;1.87;1.77;;;23.70;94.60;;;;;;4997075;28;20438;-64
2022/05/27 14:02:24;;;;;;;1.77;1.20;;;23.70;95.40;;;;;;4996387;28;20485;-65
2022/05/27 14:04:54;;;;;;;1.60;1.50;;;23.80;95.80;;;;;;4996809;28;20469;-64
2022/05/27 14:07:27;;;;;;;1.67;1.57;;;23.90;95.30;;;;;;4996550;28;20442;-64
2022/05/27 14:09:58;;;;;;;2.10;1.27;;;23.90;95.60;;;;;;4996510;28;20450;-64
2022/05/27 14:12:29;;;;;;;1.50;1.50;;;24.00;95.10;;;;;;4996447;28;20485;-64
2022/05/27 14:14:56;;;;;;;1.33;1.33;;;24.10;95.50;;;;;;4996138;28;20799;-65
2022/05/27 14:17:24;;;;;;;1.20;1.20;;;24.10;94.60;;;;;;4996154;28;20454;-65
2022/05/27 14:20:00;;;;;;;2.10;1.40;;;24.20;95.30;;;;;;4996899;28;20448;-65
2022/05/27 14:22:40;;;;;;;1.53;1.30;;;24.30;95.00;;;;;;4996056;28;20476;-65
2022/05/27 14:25:09;;;;;;;2.90;1.30;;;24.10;94.40;;;;;;4995926;28;20470;-65
2022/05/27 14:27:43;;;;;;;1.60;1.47;;;23.70;94.60;;;;;;4995609;28;20969;-65
2022/05/27 14:30:14;;;;;;;2.27;1.37;;;23.50;95.20;;;;;;4995647;28;20834;-64
2022/05/27 14:32:42;;;;;;;1.57;1.27;;;23.50;96.40;;;;;;4996218;28;20527;-66
2022/05/27 14:35:12;;;;;;;1.40;1.40;;;23.50;95.70;;;;;;4995852;28;20457;-65
2022/05/27 14:37:47;;;;;;;2.80;1.80;;;23.30;96.20;;;;;;4995702;28;20820;-65
2022/05/27 14:40:20;;;;;;;2.00;1.77;;;23.20;96.40;;;;;;4995721;28;20463;-65
2022/05/27 14:42:48;;;;;;;1.30;1.30;;;22.80;95.80;;;;;;4995696;28;20449;-65
2022/05/27 14:45:34;;;;;;;2.10;1.30;;;22.70;97.60;;;;;;4995449;28;20581;-65
2022/05/27 14:48:19;;;;;;;2.37;1.60;;;22.80;98.00;;;;;;4995584;28;20492;-65
2022/05/27 14:50:46;;;;;;;1.70;1.60;;;22.60;96.90;;;;;;4995840;28;20553;-65
2022/05/27 14:53:16;;;;;;;1.77;1.57;;;22.30;98.00;;;;;;4995146;28;20818;-65
2022/05/27 14:55:44;;;;;;;1.70;1.60;;;22.20;97.70;;;;;;4996137;28;20449;-65
2022/05/27 14:58:12;;;;;;;2.87;1.70;;;22.00;98.10;;;;;;4995502;28;20504;-64
2022/05/27 15:00:46;;;;;;;2.30;1.83;;;22.00;99.10;;;;;;4995103;28;20548;-64
2022/05/27 15:03:28;;;;;;;2.10;1.47;;;21.70;98.50;;;;;;4995124;28;20559;-64
2022/05/27 15:05:55;;;;;;;1.60;1.47;;;21.60;99.00;;;;;;4995722;28;20466;-64
2022/05/27 15:08:33;;;;;;;2.20;2.10;;;21.40;99.60;;;;;;4995723;28;20454;-64
2022/05/27 15:11:07;;;;;;;3.93;1.77;;;21.30;99.90;;;;;;4995203;28;20504;-64
2022/05/27 15:13:45;;;;;;;1.70;1.60;;;21.30;99.90;;;;;;4995436;28;20457;-64
2022/05/27 15:16:14;;;;;;;2.37;1.53;;;21.20;99.90;;;;;;4995980;28;20449;-65
2022/05/27 15:18:48;;;;;;;1.90;1.80;;;21.10;99.90;;;;;;4995437;28;20453;-65
2022/05/27 15:21:21;;;;;;;1.87;1.63;;;21.10;99.90;;;;;;4995386;28;20477;-66
2022/05/27 15:23:52;;;;;;;2.93;2.20;;;21.20;99.90;;;;;;4994962;28;20968;-65
2022/05/27 15:34:47;;;;;;;1.63;1.23;;;21.80;99.90;;;;;;4994984;28;20966;-64
2022/05/27 15:37:15;;;;;;;1.90;1.47;;;21.90;99.90;;;;;;4994903;28;20480;-64
2022/05/27 15:39:42;;;;;;;1.73;1.63;;;21.90;99.90;;;;;;4994826;28;20537;-64
2022/05/27 15:42:11;;;;;;;1.60;1.60;;;21.70;99.90;;;;;;4994898;28;20540;-64
2022/05/27 15:44:39;;;;;;;1.63;1.40;;;21.60;99.90;;;;;;4994735;28;20822;-64
2022/05/27 15:47:06;;;;;;;1.70;1.57;;;21.40;99.90;;;;;;4994677;28;20500;-64
2022/05/27 15:49:34;;;;;;;1.10;1.10;;;21.30;99.90;;;;;;4994392;28;20953;-64
2022/05/27 15:52:03;;;;;;;1.30;1.20;;;21.20;99.90;;;;;;4994590;28;20478;-64
2022/05/27 15:54:30;;;;;;;1.20;1.20;;;21.30;99.90;;;;;;4994236;28;20464;-64
2022/05/27 15:56:57;;;;;;;1.27;1.27;;;21.20;99.90;;;;;;4994610;28;20441;-64
2022/05/27 15:59:23;;;;;;;10.57;9.53;;;21.20;99.90;;;;;;4994994;28;20457;-65
2022/05/27 16:01:50;;;;;;;2.27;2.17;;;21.20;99.90;;;;;;4994213;28;20481;-65
2022/05/27 16:04:17;;;;;;;2.30;2.20;;;21.30;99.90;;;;;;4994683;28;20860;-65
2022/05/27 16:06:44;;;;;;;1.60;1.60;;;21.40;99.90;;;;;;4998300;28;20844;-65
2022/05/27 16:09:12;;;;;;;1.40;1.40;;;21.50;99.90;;;;;;4998551;28;20460;-65
2022/05/27 16:11:38;;;;;;;1.50;1.50;;;21.40;99.90;;;;;;4998460;28;20473;-64
2022/05/27 16:14:05;;;;;;;1.33;1.23;;;21.40;99.90;;;;;;4998381;28;20512;-64
2022/05/27 16:19:16;;;;;;;1.80;1.70;;;21.40;99.90;;;;;;4998468;28;20422;-64
2022/05/27 16:21:43;;;;;;;1.93;1.40;;;21.40;99.90;;;;;;4998084;28;20981;-64
2022/05/27 16:24:09;;;;;;;1.67;1.53;;;21.40;99.90;;;;;;4998327;28;20457;-64
2022/05/27 16:26:37;;;;;;;5.80;5.27;;;21.50;99.90;;;;;;4998337;28;20857;-65
2022/05/27 16:29:05;;;;;;;2.17;2.07;;;21.60;99.80;;;;;;4998441;28;20486;-64
2022/05/27 16:31:32;;;;;;;1.43;1.30;;;21.70;99.90;;;;;;4998368;28;20528;-64
2022/05/27 16:34:01;;;;;;;1.40;1.30;;;21.70;99.50;;;;;;4998606;28;20461;-64
2022/05/27 16:36:27;;;;;;;1.50;1.40;;;21.70;99.90;;;;;;5003541;28;20450;-64
2022/05/27 16:38:55;;;;;;;0.90;0.90;;;21.60;99.80;;;;;;5003415;28;20453;-64
2022/05/27 16:41:24;;;;;;;0.80;0.80;;;21.30;99.90;;;;;;4999077;28;20812;-64
2022/05/27 16:43:53;;;;;;;1.00;1.00;;;21.30;99.90;;;;;;4998141;28;20457;-64
2022/05/27 16:46:19;;;;;;;1.20;1.20;;;21.20;99.90;;;;;;4997859;28;20473;-64
2022/05/27 16:48:46;;;;;;;1.30;1.30;;;21.10;99.90;;;;;;4997478;28;21073;-64
2022/05/27 16:51:13;;;;;;;1.40;1.30;;;21.10;99.90;;;;;;4997664;28;20473;-64
2022/05/27 16:53:39;;;;;;;1.67;1.40;;;21.10;99.90;;;;;;4997529;28;20828;-64
2022/05/27 16:56:08;;;;;;;1.60;1.60;;;21.00;99.90;;;;;;4997629;28;20461;-64
2022/05/27 16:58:36;;;;;;;2.00;1.37;;;20.90;99.90;;;;;;4997616;28;20464;-64
2022/05/27 17:01:04;;;;;;;1.80;1.70;;;20.70;99.90;;;;;;4997511;28;20521;-64
2022/05/27 17:03:32;;;;;;;2.90;1.73;;;20.60;99.90;;;;;;4997610;28;20453;-65
2022/05/27 17:05:59;;;;;;;3.30;1.70;;;20.50;99.90;;;;;;4997342;28;20480;-64
2022/05/27 17:08:27;;;;;;;1.80;1.70;;;20.30;99.90;;;;;;4997655;28;20791;-63
2022/05/27 17:10:54;;;;;;;2.03;1.93;;;20.30;99.90;;;;;;4997350;28;20516;-64
2022/05/27 17:13:20;;;;;;;1.63;1.63;;;20.10;99.90;;;;;;4998244;28;20458;-65
2022/05/27 17:15:48;;;;;;;2.70;2.50;;;20.10;99.90;;;;;;4997288;28;20449;-64
2022/05/27 17:18:16;;;;;;;2.70;2.40;;;20.00;99.90;;;;;;4997014;28;20984;-64
2022/05/27 17:20:43;;;;;;;1.67;1.30;;;19.90;99.90;;;;;;4997541;28;20980;-64
2022/05/27 17:23:09;;;;;;;1.67;1.57;;;19.70;99.90;;;;;;4997482;28;20458;-64
2022/05/27 17:25:36;;;;;;;4.57;1.30;;;19.60;99.90;;;;;;4997584;28;20474;-64
2022/05/27 17:28:03;;;;;;;1.60;1.60;;;19.60;99.90;;;;;;4997230;28;20453;-65
2022/05/27 17:30:31;;;;;;;1.70;1.60;;;19.50;99.90;;;;;;4997932;28;20454;-64
2022/05/27 17:32:58;;;;;;;2.10;1.97;;;19.50;99.90;;;;;;4997513;28;20508;-65
2022/05/27 17:35:26;;;;;;;1.50;1.40;;;19.30;99.90;;;;;;4997062;28;20489;-64
2022/05/27 17:37:52;;;;;;;4.33;1.50;;;19.30;99.90;;;;;;4997110;28;20489;-64
2022/05/27 17:40:24;;;;;;;1.60;1.50;;;19.20;99.90;;;;;;4997464;28;20461;-64
2022/05/27 17:42:51;;;;;;;1.67;1.67;;;19.20;99.90;;;;;;4997923;28;20447;-65
2022/05/27 17:45:18;;;;;;;1.80;1.80;;;19.20;99.90;;;;;;4998356;28;20509;-65
2022/05/27 17:53:16;;;;;;;2.10;2.00;;;19.00;99.90;;;;;;4997910;28;20997;-65
2022/05/27 17:55:42;;;;;;;1.67;1.60;;;18.80;99.90;;;;;;4997229;28;20450;-65